createdAt,value
2022-12-04T00:02:17.976Z,12.10
2022-12-04T00:05:06.930Z,13.65
2022-12-04T00:07:54.423Z,13.55
2022-12-04T00:10:44.758Z,13.57
2022-12-04T00:13:31.985Z,11.57
2022-12-04T00:16:21.180Z,13.57
2022-12-04T00:19:08.321Z,14.93
2022-12-04T00:21:56.010Z,11.15
2022-12-04T00:24:42.756Z,13.02
2022-12-04T00:27:31.453Z,14.00
2022-12-04T00:30:18.527Z,11.27
2022-12-04T00:33:05.786Z,15.40
2022-12-04T00:35:58.768Z,12.80
2022-12-04T00:38:46.310Z,13.88
2022-12-04T00:41:34.333Z,12.98
2022-12-04T00:44:22.567Z,12.13
2022-12-04T00:47:09.465Z,11.93
2022-12-04T00:49:56.989Z,12.43
2022-12-04T00:52:44.212Z,14.05
2022-12-04T00:55:31.582Z,12.95
2022-12-04T00:58:18.376Z,13.40
2022-12-04T01:01:09.604Z,13.80
2022-12-04T01:03:57.392Z,12.52
2022-12-04T01:06:44.426Z,13.20
2022-12-04T01:09:31.331Z,13.43
2022-12-04T01:12:20.941Z,14.20
2022-12-04T01:15:08.973Z,13.32
2022-12-04T01:17:57.719Z,13.90
2022-12-04T01:20:48.917Z,12.93
2022-12-04T01:23:35.946Z,14.63
2022-12-04T01:26:22.851Z,13.07
2022-12-04T01:29:10.240Z,15.55
2022-12-04T01:31:57.128Z,15.73
2022-12-04T01:34:45.905Z,14.00
2022-12-04T01:37:32.698Z,13.85
2022-12-04T01:40:19.811Z,12.40
2022-12-04T01:43:10.499Z,14.07
2022-12-04T01:45:58.798Z,14.07
2022-12-04T01:48:50.488Z,13.20
2022-12-04T01:51:42.206Z,15.52
2022-12-04T01:54:32.259Z,14.63
2022-12-04T01:57:21.851Z,14.63
2022-12-04T02:00:11.706Z,13.70
2022-12-04T02:02:59.816Z,12.88
2022-12-04T02:05:46.743Z,14.27
2022-12-04T02:08:36.983Z,14.38
2022-12-04T02:11:31.861Z,14.35
2022-12-04T02:14:27.178Z,13.05
2022-12-04T02:17:23.368Z,12.48
2022-12-04T02:20:29.850Z,13.62
2022-12-04T02:23:29.592Z,13.43
2022-12-04T02:26:33.796Z,13.43
2022-12-04T02:29:33.984Z,15.32
2022-12-04T02:32:26.631Z,15.07
2022-12-04T02:35:17.650Z,13.45
2022-12-04T02:38:15.087Z,13.25
2022-12-04T02:41:09.353Z,14.30
2022-12-04T02:43:59.588Z,11.93
2022-12-04T02:46:52.053Z,13.95
2022-12-04T02:49:44.014Z,14.32
2022-12-04T02:52:35.482Z,14.50
2022-12-04T02:55:27.844Z,12.20
2022-12-04T02:58:18.526Z,12.23
2022-12-04T03:01:19.595Z,12.85
2022-12-04T03:04:13.110Z,14.20
2022-12-04T03:07:05.752Z,12.93
2022-12-04T03:09:57.313Z,15.00
2022-12-04T03:12:48.802Z,13.45
2022-12-04T03:15:41.811Z,13.43
2022-12-04T03:18:33.630Z,14.35
2022-12-04T03:21:25.444Z,14.05
2022-12-04T03:24:16.445Z,13.80
2022-12-04T03:27:12.137Z,14.15
2022-12-04T03:30:04.934Z,14.23
2022-12-04T03:32:56.743Z,15.23
2022-12-04T03:35:48.729Z,14.73
2022-12-04T03:38:43.016Z,15.77
2022-12-04T03:41:35.157Z,16.40
2022-12-04T03:44:25.661Z,15.80
2022-12-04T03:47:18.796Z,15.32
2022-12-04T03:50:12.880Z,14.48
2022-12-04T03:53:05.535Z,13.95
2022-12-04T03:55:59.980Z,14.07
2022-12-04T03:58:50.741Z,15.00
2022-12-04T04:01:44.047Z,15.50
2022-12-04T04:04:35.632Z,14.55
2022-12-04T04:07:34.813Z,13.35
2022-12-04T04:10:26.252Z,14.87
2022-12-04T04:13:37.275Z,14.70
2022-12-04T04:16:48.435Z,15.60
2022-12-04T04:19:55.564Z,14.18
2022-12-04T04:23:02.755Z,15.63
2022-12-04T04:25:49.765Z,15.60
2022-12-04T04:28:40.299Z,16.40
2022-12-04T04:31:35.517Z,15.38
2022-12-04T04:34:29.828Z,16.42
2022-12-04T04:37:26.453Z,15.63
2022-12-04T04:40:20.432Z,15.13
2022-12-04T04:43:13.803Z,18.05
2022-12-04T04:46:08.113Z,17.42
2022-12-04T04:49:00.388Z,16.55
2022-12-04T04:51:48.041Z,16.85
2022-12-04T04:54:35.751Z,15.68
2022-12-04T04:57:30.432Z,17.62
2022-12-04T05:00:21.009Z,15.65
2022-12-04T05:03:10.953Z,15.85
2022-12-04T05:05:57.998Z,14.82
2022-12-04T05:08:45.165Z,16.67
2022-12-04T05:11:32.340Z,16.90
2022-12-04T05:14:19.520Z,17.33
2022-12-04T05:17:12.406Z,15.13
2022-12-04T05:20:01.544Z,15.88
2022-12-04T05:22:48.391Z,17.35
2022-12-04T05:25:35.996Z,16.08
2022-12-04T05:28:23.029Z,17.80
2022-12-04T05:31:10.377Z,15.85
2022-12-04T05:33:57.726Z,15.07
2022-12-04T05:36:46.281Z,17.60
2022-12-04T05:39:33.102Z,16.15
2022-12-04T05:42:20.640Z,14.82
2022-12-04T05:45:08.141Z,17.35
2022-12-04T05:47:55.188Z,14.93
2022-12-04T05:50:41.965Z,18.05
2022-12-04T05:53:30.129Z,16.15
2022-12-04T05:56:17.251Z,16.05
2022-12-04T05:59:04.461Z,15.45
2022-12-04T06:01:51.508Z,18.62
2022-12-04T06:04:39.430Z,16.25
2022-12-04T06:07:26.718Z,16.90
2022-12-04T06:10:15.249Z,16.60
2022-12-04T06:13:02.207Z,16.95
2022-12-04T06:15:49.368Z,17.70
2022-12-04T06:18:36.269Z,16.92
2022-12-04T06:21:25.431Z,17.50
2022-12-04T06:24:15.302Z,17.85
2022-12-04T06:27:26.660Z,19.37
2022-12-04T06:30:11.832Z,14.80
2022-12-04T06:32:59.495Z,18.27
2022-12-04T06:35:46.382Z,16.85
2022-12-04T06:38:34.535Z,17.95
2022-12-04T06:41:22.651Z,17.05
2022-12-04T06:44:11.362Z,17.50
2022-12-04T06:47:00.995Z,19.65
2022-12-04T06:49:50.932Z,17.52
2022-12-04T06:52:37.890Z,17.98
2022-12-04T06:55:24.918Z,16.15
2022-12-04T06:58:11.825Z,17.30
2022-12-04T07:01:00.402Z,17.20
2022-12-04T07:03:51.649Z,17.17
2022-12-04T07:06:40.750Z,17.83
2022-12-04T07:09:27.676Z,16.17
2022-12-04T07:12:15.394Z,18.65
2022-12-04T07:15:02.562Z,17.20
2022-12-04T07:17:51.770Z,19.10
2022-12-04T07:20:40.910Z,19.08
2022-12-04T07:23:28.158Z,16.70
2022-12-04T07:26:14.975Z,17.17
2022-12-04T07:29:02.120Z,18.25
2022-12-04T07:31:49.217Z,17.33
2022-12-04T07:34:38.472Z,17.87
2022-12-04T07:37:25.336Z,18.42
2022-12-04T07:40:13.707Z,16.80
2022-12-04T07:43:00.578Z,17.62
2022-12-04T07:45:47.824Z,19.50
2022-12-04T07:48:34.528Z,18.17
2022-12-04T07:51:24.374Z,17.87
2022-12-04T07:54:11.286Z,18.10
2022-12-04T07:56:58.303Z,16.35
2022-12-04T07:59:45.207Z,16.95
2022-12-04T08:02:32.436Z,17.52
2022-12-04T08:05:19.851Z,18.23
2022-12-04T08:08:08.373Z,17.23
2022-12-04T08:10:55.733Z,17.02
2022-12-04T08:13:42.539Z,17.30
2022-12-04T08:16:31.188Z,17.42
2022-12-04T08:19:18.226Z,19.80
2022-12-04T08:22:05.445Z,19.12
2022-12-04T08:24:54.015Z,15.70
2022-12-04T08:27:47.729Z,18.20
2022-12-04T08:30:35.139Z,17.12
2022-12-04T08:33:25.362Z,16.30
2022-12-04T08:36:19.577Z,16.35
2022-12-04T08:39:07.975Z,16.60
2022-12-04T08:41:57.435Z,16.17
2022-12-04T08:44:44.451Z,18.42
2022-12-04T08:47:31.387Z,16.48
2022-12-04T08:50:18.585Z,20.50
2022-12-04T08:53:06.170Z,15.75
2022-12-04T08:55:54.176Z,17.05
2022-12-04T08:58:42.264Z,18.08
2022-12-04T09:01:30.592Z,17.05
2022-12-04T09:04:17.557Z,17.05
2022-12-04T09:07:04.847Z,15.65
2022-12-04T09:09:51.834Z,19.42
2022-12-04T09:12:39.475Z,18.40
2022-12-04T09:15:27.906Z,17.08
2022-12-04T09:18:15.805Z,16.08
2022-12-04T09:21:06.193Z,17.58
2022-12-04T09:23:53.267Z,18.05
2022-12-04T09:26:41.300Z,17.65
2022-12-04T09:29:28.686Z,18.55
2022-12-04T09:32:16.686Z,16.05
2022-12-04T09:35:03.900Z,17.33
2022-12-04T09:37:50.908Z,18.20
2022-12-04T09:40:47.142Z,17.23
2022-12-04T09:43:37.519Z,18.50
2022-12-04T09:46:29.928Z,17.37
2022-12-04T09:49:24.641Z,18.98
2022-12-04T09:52:25.060Z,19.00
2022-12-04T09:55:16.658Z,17.37
2022-12-04T09:58:07.543Z,17.05
2022-12-04T10:00:56.429Z,19.48
2022-12-04T10:03:44.108Z,19.33
2022-12-04T10:06:42.399Z,18.35
2022-12-04T10:09:37.913Z,18.52
2022-12-04T10:12:33.131Z,18.87
2022-12-04T10:15:30.646Z,19.12
2022-12-04T10:18:28.512Z,16.35
2022-12-04T10:21:35.161Z,20.37
2022-12-04T10:24:37.270Z,20.30
2022-12-04T10:27:29.975Z,17.87
2022-12-04T10:30:21.109Z,18.02
2022-12-04T10:33:17.804Z,19.45
2022-12-04T10:36:05.435Z,18.98
2022-12-04T10:38:57.632Z,17.45
2022-12-04T10:41:52.410Z,18.73
2022-12-04T10:44:40.006Z,17.67
2022-12-04T10:47:26.755Z,18.58
2022-12-04T10:50:18.342Z,16.02
2022-12-04T10:53:08.252Z,18.25
2022-12-04T10:56:11.555Z,17.55
2022-12-04T10:59:00.058Z,17.25
2022-12-04T11:01:48.202Z,19.00
2022-12-04T11:04:36.134Z,18.37
2022-12-04T11:07:25.826Z,19.60
2022-12-04T11:10:22.614Z,16.77
2022-12-04T11:13:18.980Z,17.80
2022-12-04T11:16:07.478Z,18.55
2022-12-04T11:18:54.805Z,17.75
2022-12-04T11:21:41.907Z,18.55
2022-12-04T11:24:33.308Z,18.37
2022-12-04T11:27:25.341Z,16.77
2022-12-04T11:30:19.836Z,18.08
2022-12-04T11:33:19.025Z,18.92
2022-12-04T11:36:19.736Z,16.48
2022-12-04T11:39:16.581Z,17.35
2022-12-04T11:42:06.198Z,18.58
2022-12-04T11:44:56.063Z,20.15
2022-12-04T11:47:54.873Z,17.98
2022-12-04T11:50:51.463Z,16.90
2022-12-04T11:53:47.927Z,18.35
2022-12-04T11:56:37.285Z,18.02
2022-12-04T11:59:43.848Z,18.73
2022-12-04T12:02:51.865Z,18.42
2022-12-04T12:06:03.633Z,17.65
2022-12-04T12:09:09.722Z,16.67
2022-12-04T12:12:03.853Z,16.80
2022-12-04T12:15:02.942Z,16.25
2022-12-04T12:18:08.533Z,18.87
2022-12-04T12:21:02.256Z,17.35
2022-12-04T12:24:04.290Z,17.65
2022-12-04T12:27:07.066Z,16.65
2022-12-04T12:30:04.005Z,16.17
2022-12-04T12:33:11.740Z,17.77
2022-12-04T12:36:05.691Z,17.58
2022-12-04T12:38:57.444Z,17.02
2022-12-04T12:41:49.758Z,16.33
2022-12-04T12:44:44.956Z,17.10
2022-12-04T12:47:39.953Z,14.55
2022-12-04T12:50:36.318Z,15.70
2022-12-04T12:53:27.874Z,17.70
2022-12-04T12:56:15.464Z,18.27
2022-12-04T12:59:06.999Z,17.80
2022-12-04T13:05:07.600Z,16.40
2022-12-04T13:08:02.404Z,17.67
2022-12-04T13:10:57.506Z,16.10
2022-12-04T13:13:47.433Z,17.25
2022-12-04T13:16:42.940Z,17.95
2022-12-04T13:19:33.585Z,16.27
2022-12-04T13:22:31.781Z,17.50
2022-12-04T13:25:41.688Z,17.77
2022-12-04T13:28:44.378Z,16.00
2022-12-04T13:31:39.135Z,17.48
2022-12-04T13:34:45.283Z,18.30
2022-12-04T13:37:50.503Z,17.00
2022-12-04T13:40:42.117Z,18.90
2022-12-04T13:43:45.790Z,18.17
2022-12-04T13:46:35.176Z,17.05
2022-12-04T13:49:27.085Z,18.48
2022-12-04T13:52:24.322Z,17.65
2022-12-04T13:55:26.275Z,17.23
2022-12-04T13:58:28.875Z,16.60
2022-12-04T14:01:27.243Z,16.02
2022-12-04T14:04:25.406Z,16.33
2022-12-04T14:07:25.479Z,18.12
2022-12-04T14:10:29.086Z,15.45
2022-12-04T14:13:22.789Z,16.65
2022-12-04T14:16:20.800Z,17.25
2022-12-04T14:19:09.208Z,17.58
2022-12-04T14:21:56.536Z,17.35
2022-12-04T14:24:43.135Z,18.58
2022-12-04T14:27:34.859Z,16.58
2022-12-04T14:30:25.320Z,15.65
2022-12-04T14:33:20.053Z,17.50
2022-12-04T14:36:12.486Z,19.55
2022-12-04T14:39:09.099Z,19.58
2022-12-04T14:42:06.941Z,17.25
2022-12-04T14:44:56.830Z,18.12
2022-12-04T14:47:56.112Z,17.65
2022-12-04T14:50:52.964Z,15.98
2022-12-04T14:53:47.282Z,15.88
2022-12-04T14:56:47.901Z,18.55
2022-12-04T14:59:43.915Z,17.50
2022-12-04T15:02:36.594Z,17.40
2022-12-04T15:05:27.007Z,16.23
2022-12-04T15:08:16.105Z,14.40
2022-12-04T15:11:26.277Z,15.43
2022-12-04T15:14:14.765Z,15.95
2022-12-04T15:17:03.877Z,14.68
2022-12-04T15:19:50.974Z,16.52
2022-12-04T15:22:37.939Z,16.85
2022-12-04T15:25:29.196Z,14.87
2022-12-04T15:28:22.082Z,16.52
2022-12-04T15:31:16.331Z,16.90
2022-12-04T15:34:07.294Z,17.58
2022-12-04T15:37:03.023Z,16.67
2022-12-04T15:39:52.665Z,15.20
2022-12-04T15:42:41.648Z,15.43
2022-12-04T15:45:35.300Z,17.48
2022-12-04T15:48:27.643Z,15.40
2022-12-04T15:51:16.770Z,17.37
2022-12-04T15:54:04.621Z,15.57
2022-12-04T15:57:03.530Z,15.80
2022-12-04T15:59:53.674Z,15.95
2022-12-04T16:02:43.128Z,14.82
2022-12-04T16:05:36.481Z,14.93
2022-12-04T16:08:25.436Z,15.05
2022-12-04T16:11:29.402Z,16.05
2022-12-04T16:14:17.906Z,16.23
2022-12-04T16:17:06.751Z,16.67
2022-12-04T16:19:53.356Z,18.48
2022-12-04T16:22:41.795Z,17.98
2022-12-04T16:25:31.548Z,17.60
2022-12-04T16:28:19.280Z,16.45
2022-12-04T16:31:06.749Z,14.65
2022-12-04T16:33:54.958Z,19.65
2022-12-04T16:36:42.507Z,16.48
2022-12-04T16:39:30.053Z,17.80
2022-12-04T16:42:18.699Z,15.20
2022-12-04T16:45:21.587Z,16.12
2022-12-04T16:48:08.657Z,14.73
2022-12-04T16:50:56.926Z,15.38
2022-12-04T16:53:44.150Z,17.08
2022-12-04T16:56:31.473Z,16.35
2022-12-04T16:59:18.288Z,15.45
2022-12-04T17:02:14.093Z,15.50
2022-12-04T17:05:01.016Z,15.32
2022-12-04T17:07:50.612Z,15.55
2022-12-04T17:10:37.487Z,14.25
2022-12-04T17:13:24.415Z,15.85
2022-12-04T17:16:14.834Z,15.40
2022-12-04T17:19:02.460Z,14.95
2022-12-04T17:21:49.186Z,14.23
2022-12-04T17:24:43.562Z,16.08
2022-12-04T17:27:34.454Z,14.98
2022-12-04T17:30:21.582Z,14.45
2022-12-04T17:33:09.377Z,16.67
2022-12-04T17:35:56.208Z,15.52
2022-12-04T17:38:43.133Z,14.93
2022-12-04T17:41:31.549Z,15.73
2022-12-04T17:44:18.478Z,13.30
2022-12-04T17:47:06.331Z,15.98
2022-12-04T17:49:52.945Z,14.70
2022-12-04T17:52:40.445Z,15.13
2022-12-04T17:55:27.285Z,14.15
2022-12-04T17:58:15.875Z,13.25
2022-12-04T18:01:04.403Z,14.00
2022-12-04T18:03:53.237Z,13.48
2022-12-04T18:06:42.503Z,15.73
2022-12-04T18:09:30.110Z,16.08
2022-12-04T18:12:17.445Z,14.70
2022-12-04T18:15:07.540Z,16.62
2022-12-04T18:17:54.338Z,13.98
2022-12-04T18:20:42.055Z,15.80
2022-12-04T18:23:30.387Z,17.90
2022-12-04T18:26:20.042Z,17.55
2022-12-04T18:29:07.899Z,16.05
2022-12-04T18:31:56.352Z,14.35
2022-12-04T18:34:43.637Z,15.52
2022-12-04T18:37:31.090Z,15.00
2022-12-04T18:40:18.170Z,17.42
2022-12-04T18:43:05.681Z,15.25
2022-12-04T18:46:04.066Z,16.20
2022-12-04T18:48:58.457Z,14.38
2022-12-04T18:51:50.126Z,15.65
2022-12-04T18:54:37.783Z,18.35
2022-12-04T18:57:24.478Z,17.40
2022-12-04T19:00:12.177Z,15.73
2022-12-04T19:02:58.749Z,16.83
2022-12-04T19:05:50.951Z,16.50
2022-12-04T19:08:42.853Z,18.10
2022-12-04T19:11:30.752Z,16.67
2022-12-04T19:14:23.688Z,15.55
2022-12-04T19:17:11.442Z,17.15
2022-12-04T19:19:58.592Z,16.55
2022-12-04T19:22:47.117Z,16.70
2022-12-04T19:25:34.021Z,17.25
2022-12-04T19:28:21.322Z,16.30
2022-12-04T19:31:15.946Z,16.90
2022-12-04T19:34:03.512Z,15.07
2022-12-04T19:36:50.198Z,18.50
2022-12-04T19:39:38.919Z,16.98
2022-12-04T19:42:25.661Z,18.20
2022-12-04T19:45:13.071Z,17.75
2022-12-04T19:48:00.179Z,18.87
2022-12-04T19:50:46.833Z,19.12
2022-12-04T19:53:40.501Z,18.23
2022-12-04T19:56:32.568Z,17.15
2022-12-04T19:59:21.015Z,17.70
2022-12-04T20:02:09.773Z,19.05
2022-12-04T20:04:56.981Z,20.02
2022-12-04T20:07:43.720Z,19.08
2022-12-04T20:10:33.038Z,14.73
2022-12-04T20:13:21.223Z,18.75
2022-12-04T20:16:10.963Z,18.42
2022-12-04T20:18:57.645Z,19.77
2022-12-04T20:21:45.320Z,18.73
2022-12-04T20:24:32.011Z,19.45
2022-12-04T20:27:19.378Z,20.33
2022-12-04T20:30:09.089Z,18.15
2022-12-04T20:32:56.486Z,18.70
2022-12-04T20:35:43.393Z,18.85
2022-12-04T20:38:30.805Z,20.85
2022-12-04T20:41:18.801Z,20.23
2022-12-04T20:44:08.016Z,22.00
2022-12-04T20:46:56.280Z,22.00
2022-12-04T20:49:43.657Z,21.05
2022-12-04T20:52:30.389Z,21.08
2022-12-04T20:55:17.673Z,19.02
2022-12-04T20:58:04.462Z,18.92
2022-12-04T21:00:51.887Z,23.12
2022-12-04T21:03:40.466Z,21.23
2022-12-04T21:06:34.531Z,19.05
2022-12-04T21:09:24.698Z,22.50
2022-12-04T21:12:26.326Z,19.83
2022-12-04T21:15:30.772Z,19.83
2022-12-04T21:18:17.647Z,19.17
2022-12-04T21:21:05.967Z,18.92
2022-12-04T21:23:53.222Z,19.27
2022-12-04T21:26:40.566Z,21.00
2022-12-04T21:29:27.727Z,20.35
2022-12-04T21:32:14.553Z,19.80
2022-12-04T21:35:02.521Z,19.55
2022-12-04T21:37:50.731Z,21.10
2022-12-04T21:40:42.311Z,22.37
2022-12-04T21:43:29.851Z,21.12
2022-12-04T21:46:17.104Z,21.75
2022-12-04T21:49:05.337Z,22.30
2022-12-04T21:51:57.669Z,21.17
2022-12-04T21:54:49.148Z,19.90
2022-12-04T21:57:36.426Z,19.42
2022-12-04T22:00:23.576Z,22.05
2022-12-04T22:03:13.354Z,20.90
2022-12-04T22:06:01.399Z,22.30
2022-12-04T22:08:49.055Z,21.67
2022-12-04T22:11:37.657Z,22.90
2022-12-04T22:14:24.615Z,19.33
2022-12-04T22:17:11.627Z,19.52
2022-12-04T22:19:58.989Z,21.52
2022-12-04T22:22:46.165Z,22.23
2022-12-04T22:25:33.393Z,23.62
2022-12-04T22:28:21.756Z,21.67
2022-12-04T22:31:11.062Z,20.83
2022-12-04T22:34:00.174Z,23.30
2022-12-04T22:36:49.900Z,18.08
2022-12-04T22:39:37.019Z,20.30
2022-12-04T22:42:24.026Z,20.85
2022-12-04T22:45:12.979Z,21.40
2022-12-04T22:48:00.428Z,20.45
2022-12-04T22:50:47.204Z,22.62
2022-12-04T22:53:37.790Z,22.90
2022-12-04T22:56:25.949Z,21.42
2022-12-04T22:59:13.251Z,20.35
2022-12-04T23:02:01.769Z,22.33
2022-12-04T23:04:49.096Z,20.60
2022-12-04T23:07:36.860Z,20.27
2022-12-04T23:10:24.230Z,22.58
2022-12-04T23:13:11.142Z,19.42
2022-12-04T23:15:58.183Z,22.27
2022-12-04T23:18:46.377Z,18.17
2022-12-04T23:21:34.431Z,20.90
2022-12-04T23:24:21.548Z,19.50
2022-12-04T23:27:08.671Z,21.05
2022-12-04T23:29:55.553Z,20.45
2022-12-04T23:32:42.986Z,21.58
2022-12-04T23:35:31.924Z,22.65
2022-12-04T23:38:18.851Z,19.55
2022-12-04T23:41:07.704Z,21.60
2022-12-04T23:43:55.845Z,21.33
2022-12-04T23:46:42.696Z,20.92
2022-12-04T23:49:30.258Z,19.80
2022-12-04T23:52:18.237Z,22.65
2022-12-04T23:55:06.012Z,20.42
2022-12-04T23:57:52.796Z,20.45
